Cash's Hourly Summary for Monday, March 13, 2017
Hour Temp
(f)
RH
(%)
Solar Rad.
(MJ/m2)
Rainfall
(in)
Wind
(mph)
3/13/2017 12:00 AM 45 83 0 0 0.44
3/13/2017 1:00 AM 43 87 0 0 0.01
3/13/2017 2:00 AM 44 85 0 0 0.83
3/13/2017 3:00 AM 45 84 0 0 2.33
3/13/2017 4:00 AM 46 84 0 0 1.39
3/13/2017 5:00 AM 45 85 0 0.05 1.81
3/13/2017 6:00 AM 45 96 0 0.04 2.04
3/13/2017 7:00 AM 46 97 0 0 1.84
3/13/2017 8:00 AM 47 95 0.01 0 1.7
3/13/2017 9:00 AM 47 95 0.1 0 1.62
3/13/2017 10:00 AM 48 94 0.11 0.01 1.71
3/13/2017 11:00 AM 48 87 0.48 0 4.46
3/13/2017 12:00 PM 50 75 0.72 0 7.42
3/13/2017 1:00 PM 51 71 0.65 0 8
3/13/2017 2:00 PM 53 58 2.51 0 8.23
3/13/2017 3:00 PM 57 46 2.51 0 8.1
3/13/2017 4:00 PM 60 41 2.44 0 8.92
3/13/2017 5:00 PM 60 35 2.14 0 9.74
3/13/2017 6:00 PM 58 29 1.46 0 10.63
3/13/2017 7:00 PM 56 29 0.66 0 9.55
3/13/2017 8:00 PM 52 30 0.04 0 6.53
3/13/2017 9:00 PM 49 35 0 0 6.4
3/13/2017 10:00 PM 47 39 0 0 6.33
3/13/2017 11:00 PM 45 43 0 0 6.46
Data Summary 49 66 13.83 0.10 4.85